PABT/BTT METAR and TAF weather

Enter ICAO airport designator
Station Type Date Time Source
PABT METAR 2019/08/25 19:53 UTC NOAA

PABT 251953Z 23011KT 10SM FEW040 13/04 A2978 RMK AO2 SLP094 T01280039


Station Type Date Time Source
PABT Decoded METAR 2019/08/25 19:53 UTC NOAA

Station name not available
Aug 25, 2019 - 03:53 PM EDT / 2019.08.25 1953 UTC
Wind: from the SW (230 degrees) at 13 MPH (11 KT):0
Visibility: 10 mile(s):0
Sky conditions: mostly clear
Temperature: 55.0 F (12.8 C)
Dew Point: 39.0 F (3.9 C)
Relative Humidity: 54%
Pressure (altimeter): 29.78 in. Hg (1008 hPa)
ob: PABT 251953Z 23011KT 10SM FEW040 13/04 A2978 RMK AO2 SLP094 T01280039
cycle: 20

Station Type Date Time Source
PABT TAF 2019/08/25 18:42 UTC NOAA

TAF PABT 251741Z 2518/2618 15005KT P6SM FEW120
FM252100 22008KT P6SM BKN070

Example: see airport list